createdAt,value
2023-04-17T00:01:17.379Z,9.30
2023-04-17T00:03:47.552Z,9.70
2023-04-17T00:06:18.544Z,8.70
2023-04-17T00:08:48.566Z,8.70
2023-04-17T00:11:18.820Z,8.40
2023-04-17T00:13:52.334Z,8.30
2023-04-17T00:16:26.556Z,8.30
2023-04-17T00:18:56.227Z,8.20
2023-04-17T00:21:25.963Z,8.50
2023-04-17T00:23:55.525Z,8.70
2023-04-17T00:26:25.117Z,8.50
2023-04-17T00:28:54.689Z,7.60
2023-04-17T00:31:23.891Z,7.40
2023-04-17T00:33:53.511Z,6.70
2023-04-17T00:36:31.514Z,7.00
2023-04-17T00:39:00.949Z,7.50
2023-04-17T00:41:30.433Z,7.70
2023-04-17T00:43:59.839Z,7.10
2023-04-17T00:46:29.266Z,7.50
2023-04-17T00:48:59.087Z,6.90
2023-04-17T00:51:29.278Z,6.80
2023-04-17T00:54:00.436Z,6.80
2023-04-17T00:56:29.952Z,6.70
2023-04-17T00:59:02.826Z,6.80
2023-04-17T01:01:32.038Z,8.00
2023-04-17T01:04:05.537Z,7.40
2023-04-17T01:06:34.749Z,6.60
2023-04-17T01:09:04.572Z,7.10
2023-04-17T01:11:34.322Z,6.60
2023-04-17T01:14:03.505Z,7.50
2023-04-17T01:16:33.243Z,7.50
2023-04-17T01:19:02.738Z,7.60
2023-04-17T01:21:32.114Z,7.70
2023-04-17T01:24:03.346Z,8.10
2023-04-17T01:26:33.849Z,7.90
2023-04-17T01:29:03.750Z,8.50
2023-04-17T01:31:33.116Z,7.70
2023-04-17T01:34:02.292Z,8.00
2023-04-17T01:36:31.628Z,8.30
2023-04-17T01:39:00.955Z,8.40
2023-04-17T01:41:30.074Z,9.40
2023-04-17T01:44:00.168Z,9.10
2023-04-17T01:46:29.603Z,9.20
2023-04-17T01:48:58.885Z,7.80
2023-04-17T01:51:28.357Z,8.20
2023-04-17T01:53:57.454Z,8.10
2023-04-17T01:56:27.499Z,8.50
2023-04-17T01:58:57.165Z,8.50
2023-04-17T02:01:26.560Z,8.40
2023-04-17T02:03:55.935Z,8.40
2023-04-17T02:06:26.905Z,8.80
2023-04-17T02:08:55.993Z,7.40
2023-04-17T02:11:25.684Z,8.20
2023-04-17T02:13:55.015Z,7.00
2023-04-17T02:16:24.449Z,8.70
2023-04-17T02:18:53.616Z,8.30
2023-04-17T02:21:23.333Z,7.90
2023-04-17T02:23:52.660Z,7.90
2023-04-17T02:26:23.154Z,7.80
2023-04-17T02:28:52.362Z,6.70
2023-04-17T02:31:24.504Z,6.10
2023-04-17T02:33:53.751Z,6.20
2023-04-17T02:36:23.113Z,7.90
2023-04-17T02:38:52.533Z,6.30
2023-04-17T02:41:21.920Z,6.50
2023-04-17T02:43:51.073Z,6.40
2023-04-17T02:46:20.242Z,6.80
2023-04-17T02:48:49.728Z,6.20
2023-04-17T02:51:19.014Z,5.80
2023-04-17T02:53:48.622Z,5.70
2023-04-17T02:56:19.111Z,6.30
2023-04-17T02:58:48.212Z,6.30
2023-04-17T03:01:18.171Z,7.40
2023-04-17T03:03:49.130Z,6.50
2023-04-17T03:06:18.606Z,6.00
2023-04-17T03:08:48.276Z,5.50
2023-04-17T03:11:19.267Z,6.80
2023-04-17T03:13:48.625Z,6.30
2023-04-17T03:16:19.035Z,6.70
2023-04-17T03:18:48.313Z,7.50
2023-04-17T03:21:18.360Z,6.70
2023-04-17T03:23:48.418Z,7.00
2023-04-17T03:26:18.365Z,6.40
2023-04-17T03:28:48.317Z,6.10
2023-04-17T03:31:18.293Z,6.30
2023-04-17T03:33:48.426Z,6.70
2023-04-17T03:36:18.370Z,6.40
2023-04-17T03:38:48.534Z,7.60
2023-04-17T03:41:19.362Z,7.80
2023-04-17T03:43:49.986Z,8.50
2023-04-17T03:46:19.349Z,7.90
2023-04-17T03:48:48.651Z,7.60
2023-04-17T03:51:21.178Z,8.50
2023-04-17T03:53:50.469Z,9.00
2023-04-17T03:56:19.978Z,9.60
2023-04-17T03:58:49.328Z,9.10
2023-04-17T04:01:19.332Z,10.20
2023-04-17T04:03:49.804Z,9.50
2023-04-17T04:06:20.284Z,9.60
2023-04-17T04:08:50.148Z,8.40
2023-04-17T04:11:19.644Z,9.80
2023-04-17T04:13:48.857Z,9.90
2023-04-17T04:16:19.244Z,9.70
2023-04-17T04:18:49.486Z,10.80
2023-04-17T04:21:18.986Z,10.80
2023-04-17T04:23:49.342Z,10.20
2023-04-17T04:26:21.114Z,9.20
2023-04-17T04:28:51.260Z,8.00
2023-04-17T04:31:21.045Z,8.90
2023-04-17T04:33:54.707Z,8.70
2023-04-17T04:36:29.595Z,8.70
2023-04-17T04:38:59.352Z,8.80
2023-04-17T04:41:29.343Z,9.00
2023-04-17T04:43:58.473Z,7.90
2023-04-17T04:46:29.251Z,8.10
2023-04-17T04:48:59.584Z,7.50
2023-04-17T04:51:29.164Z,7.40
2023-04-17T04:53:58.454Z,8.40
2023-04-17T04:56:28.548Z,7.90
2023-04-17T04:58:58.621Z,8.20
2023-04-17T05:01:29.210Z,8.10
2023-04-17T05:03:58.768Z,8.40
2023-04-17T05:06:27.949Z,7.20
2023-04-17T05:08:59.445Z,7.30
2023-04-17T05:11:29.717Z,7.60
2023-04-17T05:13:58.707Z,7.90
2023-04-17T05:16:27.978Z,8.70
2023-04-17T05:18:57.715Z,8.00
2023-04-17T05:21:27.905Z,8.00
2023-04-17T05:23:58.794Z,7.40
2023-04-17T05:26:28.260Z,7.60
2023-04-17T05:28:57.616Z,8.20
2023-04-17T05:31:27.066Z,9.00
2023-04-17T05:33:56.337Z,9.60
2023-04-17T05:36:26.565Z,9.90
2023-04-17T05:38:56.570Z,9.70
2023-04-17T05:41:27.410Z,9.20
2023-04-17T05:43:56.563Z,7.70
2023-04-17T05:46:25.936Z,8.30
2023-04-17T05:48:55.012Z,8.80
2023-04-17T05:51:25.739Z,8.60
2023-04-17T05:53:57.187Z,8.60
2023-04-17T05:56:26.756Z,9.50
2023-04-17T05:58:56.085Z,8.50
2023-04-17T06:01:25.816Z,8.00
2023-04-17T06:03:55.330Z,8.00
2023-04-17T06:06:24.718Z,7.60
2023-04-17T06:08:54.423Z,8.50
2023-04-17T06:11:25.640Z,8.80
2023-04-17T06:13:54.695Z,8.00
2023-04-17T06:16:24.034Z,7.90
2023-04-17T06:18:54.486Z,8.30
2023-04-17T06:21:23.989Z,8.30
2023-04-17T06:23:53.398Z,8.10
2023-04-17T06:26:22.782Z,8.20
2023-04-17T06:28:52.325Z,8.20
2023-04-17T06:31:21.582Z,7.60
2023-04-17T06:33:50.868Z,7.60
2023-04-17T06:36:21.523Z,7.10
2023-04-17T06:38:50.729Z,6.70
2023-04-17T06:41:20.523Z,6.80
2023-04-17T06:43:49.928Z,6.80
2023-04-17T06:46:21.612Z,6.90
2023-04-17T06:48:51.749Z,7.00
2023-04-17T06:51:21.277Z,7.30
2023-04-17T06:53:50.706Z,7.10
2023-04-17T06:56:20.464Z,6.10
2023-04-17T06:58:49.728Z,6.60
2023-04-17T07:01:20.751Z,6.00
2023-04-17T07:03:50.304Z,6.10
2023-04-17T07:06:20.293Z,6.90
2023-04-17T07:08:50.214Z,6.60
2023-04-17T07:11:19.621Z,6.40
2023-04-17T07:13:49.735Z,6.60
2023-04-17T07:16:23.072Z,6.40
2023-04-17T07:18:52.939Z,5.60
2023-04-17T07:21:22.338Z,6.30
2023-04-17T07:23:52.037Z,6.90
2023-04-17T07:26:22.063Z,7.20
2023-04-17T07:28:51.401Z,7.10
2023-04-17T07:31:21.767Z,7.30
2023-04-17T07:33:51.413Z,7.00
2023-04-17T07:36:23.787Z,6.90
2023-04-17T07:38:53.099Z,6.50
2023-04-17T07:41:22.329Z,6.80
2023-04-17T07:43:51.697Z,7.30
2023-04-17T07:46:23.817Z,7.10
2023-04-17T07:48:53.284Z,6.20
2023-04-17T07:51:22.777Z,6.00
2023-04-17T07:53:51.876Z,5.80
2023-04-17T07:56:21.311Z,5.40
2023-04-17T07:58:51.564Z,5.30
2023-04-17T08:01:21.106Z,5.30
2023-04-17T08:03:51.199Z,5.60
2023-04-17T08:06:20.801Z,5.80
2023-04-17T08:08:50.601Z,5.60
2023-04-17T08:11:20.192Z,5.40
2023-04-17T08:13:53.827Z,5.30
2023-04-17T08:16:23.335Z,5.20
2023-04-17T08:18:52.628Z,5.50
2023-04-17T08:21:21.941Z,6.80
2023-04-17T08:23:51.188Z,7.30
2023-04-17T08:26:23.043Z,7.40
2023-04-17T08:28:53.202Z,7.30
2023-04-17T08:31:22.786Z,7.10
2023-04-17T08:33:59.477Z,6.80
2023-04-17T08:36:36.169Z,7.50
2023-04-17T08:39:05.495Z,8.30
2023-04-17T08:41:44.693Z,8.40
2023-04-17T08:44:21.165Z,8.80
2023-04-17T08:46:51.317Z,8.20
2023-04-17T08:49:23.235Z,8.30
2023-04-17T08:51:52.940Z,8.10
2023-04-17T08:54:23.083Z,8.40
2023-04-17T08:56:53.507Z,8.60
2023-04-17T08:59:23.507Z,9.90
2023-04-17T09:02:12.181Z,9.50
2023-04-17T09:04:47.403Z,9.90
2023-04-17T09:07:19.880Z,8.90
2023-04-17T09:09:54.402Z,8.90
2023-04-17T09:12:25.450Z,9.50
2023-04-17T09:14:55.448Z,9.40
2023-04-17T09:17:33.609Z,9.70
2023-04-17T09:20:08.513Z,10.00
2023-04-17T09:22:39.684Z,10.00
2023-04-17T09:25:20.126Z,10.00
2023-04-17T09:27:50.522Z,9.90
2023-04-17T09:30:22.305Z,9.10
2023-04-17T09:33:04.413Z,9.70
2023-04-17T09:35:39.715Z,10.20
2023-04-17T09:38:09.630Z,10.90
2023-04-17T09:40:40.820Z,10.40
2023-04-17T09:43:11.881Z,10.00
2023-04-17T09:45:44.652Z,8.20
2023-04-17T09:48:15.310Z,10.10
2023-04-17T09:50:45.444Z,9.20
2023-04-17T09:53:19.047Z,10.40
2023-04-17T09:55:52.690Z,10.80
2023-04-17T09:58:22.877Z,10.70
2023-04-17T10:00:52.925Z,9.20
2023-04-17T10:03:22.815Z,9.80
2023-04-17T10:05:53.647Z,9.50
2023-04-17T10:08:23.473Z,9.20
2023-04-17T10:10:53.460Z,9.70
2023-04-17T10:13:29.192Z,9.80
2023-04-17T10:15:58.732Z,9.90
2023-04-17T10:18:27.951Z,8.60
2023-04-17T10:20:57.528Z,10.10
2023-04-17T10:23:34.002Z,11.10
2023-04-17T10:26:41.138Z,10.80
2023-04-17T10:29:12.117Z,10.20
2023-04-17T10:32:28.084Z,10.50
2023-04-17T10:34:58.979Z,10.10
2023-04-17T10:38:04.101Z,9.30
2023-04-17T10:40:35.239Z,9.80
2023-04-17T10:43:06.332Z,9.60
2023-04-17T10:45:56.814Z,9.00
2023-04-17T10:48:32.692Z,8.50
2023-04-17T10:51:43.089Z,7.50
2023-04-17T10:54:14.950Z,7.30
2023-04-17T10:56:50.187Z,7.60
2023-04-17T10:59:22.976Z,7.30
2023-04-17T11:02:03.947Z,8.70
2023-04-17T11:04:34.115Z,7.60
2023-04-17T11:07:03.627Z,7.20
2023-04-17T11:09:32.890Z,7.30
2023-04-17T11:12:02.438Z,5.80
2023-04-17T11:14:32.584Z,7.40
2023-04-17T11:17:02.259Z,6.30
2023-04-17T11:19:33.607Z,6.30
2023-04-17T11:22:03.252Z,5.40
2023-04-17T11:24:33.084Z,5.80
2023-04-17T11:27:02.818Z,5.20
2023-04-17T11:29:32.197Z,6.10
2023-04-17T11:32:01.538Z,6.30
2023-04-17T11:34:31.498Z,5.80
2023-04-17T11:37:03.215Z,6.70
2023-04-17T11:39:34.745Z,5.90
2023-04-17T11:42:04.620Z,6.30
2023-04-17T11:44:35.060Z,7.20
2023-04-17T11:47:05.466Z,7.10
2023-04-17T11:49:39.251Z,8.00
2023-04-17T11:52:08.525Z,7.50
2023-04-17T11:54:38.479Z,7.30
2023-04-17T11:57:14.394Z,7.20
2023-04-17T11:59:45.603Z,7.30
2023-04-17T12:02:16.230Z,7.80
2023-04-17T12:04:46.620Z,7.90
2023-04-17T12:07:25.524Z,8.50
2023-04-17T12:09:58.175Z,7.80
2023-04-17T12:12:28.808Z,8.30
2023-04-17T12:14:58.533Z,7.80
2023-04-17T12:17:28.707Z,8.20
2023-04-17T12:20:01.903Z,8.20
2023-04-17T12:22:31.739Z,8.30
2023-04-17T12:25:01.235Z,8.40
2023-04-17T12:27:36.787Z,8.40
2023-04-17T12:30:11.329Z,8.50
2023-04-17T12:32:42.388Z,8.40
2023-04-17T12:35:12.140Z,7.50
2023-04-17T12:37:42.562Z,8.00
2023-04-17T12:40:12.496Z,7.80
2023-04-17T12:42:48.774Z,8.00
2023-04-17T12:45:20.817Z,7.80
2023-04-17T12:47:57.123Z,6.70
2023-04-17T12:50:27.303Z,6.20
2023-04-17T12:52:56.481Z,5.60
2023-04-17T12:55:25.794Z,5.90
2023-04-17T12:57:55.391Z,5.50
2023-04-17T13:00:25.057Z,5.80
2023-04-17T13:02:54.200Z,5.60
2023-04-17T13:05:24.106Z,5.20
2023-04-17T13:07:53.631Z,5.20
2023-04-17T13:10:23.217Z,5.20
2023-04-17T13:12:52.673Z,5.50
2023-04-17T13:15:22.887Z,5.70
2023-04-17T13:17:53.013Z,6.60
2023-04-17T13:20:23.914Z,6.40
2023-04-17T13:22:59.230Z,6.40
2023-04-17T13:25:30.300Z,5.80
2023-04-17T13:27:59.836Z,6.30
2023-04-17T13:30:32.622Z,6.60
2023-04-17T13:33:03.424Z,6.20
2023-04-17T13:35:33.553Z,6.50
2023-04-17T13:38:03.076Z,7.10
2023-04-17T13:40:32.457Z,6.80
2023-04-17T13:43:01.715Z,6.60
2023-04-17T13:45:30.985Z,6.90
2023-04-17T13:48:00.169Z,6.30
2023-04-17T13:50:29.842Z,6.30
2023-04-17T13:52:59.047Z,6.70
2023-04-17T13:55:28.642Z,6.10
2023-04-17T13:57:59.070Z,6.30
2023-04-17T14:00:28.028Z,5.50
2023-04-17T14:02:59.722Z,5.50
2023-04-17T14:05:31.162Z,5.30
2023-04-17T14:08:01.044Z,5.40
2023-04-17T14:10:34.836Z,5.90
2023-04-17T14:13:04.399Z,5.60
2023-04-17T14:15:34.289Z,5.80
2023-04-17T14:18:04.047Z,5.30
2023-04-17T14:20:35.688Z,4.80
2023-04-17T14:23:06.725Z,4.90
2023-04-17T14:25:36.290Z,5.40
2023-04-17T14:28:05.555Z,5.90
2023-04-17T14:30:34.877Z,5.80
2023-04-17T14:33:04.480Z,5.60
2023-04-17T14:35:34.741Z,6.50
2023-04-17T14:38:04.560Z,5.60
2023-04-17T14:40:34.140Z,6.60
2023-04-17T14:43:03.523Z,6.80
2023-04-17T14:45:34.117Z,6.60
2023-04-17T14:48:05.170Z,7.40
2023-04-17T14:50:34.635Z,7.30
2023-04-17T14:53:05.061Z,6.70
2023-04-17T14:55:36.411Z,7.00
2023-04-17T14:58:05.662Z,6.10
2023-04-17T15:00:35.406Z,6.40
2023-04-17T15:03:05.330Z,7.00
2023-04-17T15:05:34.737Z,7.10
2023-04-17T15:08:04.136Z,6.80
2023-04-17T15:10:44.254Z,7.10
2023-04-17T15:13:19.208Z,6.20
2023-04-17T15:15:49.478Z,5.40
2023-04-17T15:18:19.873Z,6.00
2023-04-17T15:20:50.564Z,6.60
2023-04-17T15:23:21.689Z,6.00
2023-04-17T15:25:55.116Z,6.60
2023-04-17T15:28:25.092Z,6.20
2023-04-17T15:30:55.868Z,6.20
2023-04-17T15:33:25.109Z,6.30
2023-04-17T15:35:57.728Z,6.20
2023-04-17T15:38:29.696Z,6.20
2023-04-17T15:40:59.596Z,6.00
2023-04-17T15:43:29.221Z,6.30
2023-04-17T15:46:10.821Z,6.40
2023-04-17T15:49:12.672Z,5.70
2023-04-17T15:51:57.733Z,6.40
2023-04-17T15:54:35.265Z,6.40
2023-04-17T15:57:39.320Z,6.30
2023-04-17T16:00:26.559Z,6.40
2023-04-17T16:03:32.361Z,6.10
2023-04-17T16:06:44.636Z,5.90
2023-04-17T16:09:37.686Z,6.10
2023-04-17T16:12:28.731Z,6.40
2023-04-17T16:15:02.370Z,6.30
2023-04-17T16:17:31.853Z,6.60
2023-04-17T16:20:02.873Z,6.70
2023-04-17T16:22:35.250Z,6.40
2023-04-17T16:25:06.103Z,5.90
2023-04-17T16:27:36.873Z,6.20
2023-04-17T16:30:12.666Z,5.90
2023-04-17T16:32:44.793Z,6.70
2023-04-17T16:35:15.489Z,6.70
2023-04-17T16:37:46.596Z,6.40
2023-04-17T16:40:17.468Z,6.10
2023-04-17T16:42:47.114Z,6.20
2023-04-17T16:45:33.894Z,5.90
2023-04-17T16:48:03.638Z,5.30
2023-04-17T16:50:34.197Z,6.20
2023-04-17T16:53:10.457Z,6.20
2023-04-17T16:56:58.478Z,5.80
2023-04-17T16:59:18.153Z,6.30
2023-04-17T17:02:09.578Z,5.50
2023-04-17T17:04:45.329Z,5.90
2023-04-17T17:07:15.068Z,5.90
2023-04-17T17:09:44.694Z,5.50
2023-04-17T17:12:14.489Z,6.00
2023-04-17T17:14:43.780Z,6.40
2023-04-17T17:17:14.298Z,6.00
2023-04-17T17:19:53.690Z,5.90
2023-04-17T17:22:25.541Z,5.60
2023-04-17T17:24:59.939Z,5.70
2023-04-17T17:27:30.058Z,6.00
2023-04-17T17:30:14.996Z,6.30
2023-04-17T17:32:45.346Z,5.80
2023-04-17T17:35:44.134Z,6.00
2023-04-17T17:38:15.176Z,5.70
2023-04-17T17:40:56.253Z,5.60
2023-04-17T17:43:29.763Z,5.70
2023-04-17T17:46:00.646Z,5.80
2023-04-17T17:48:30.331Z,6.40
2023-04-17T17:50:59.524Z,6.20
2023-04-17T17:53:29.098Z,6.20
2023-04-17T17:56:02.902Z,5.40
2023-04-17T17:58:32.309Z,6.20
2023-04-17T18:01:01.859Z,6.10
2023-04-17T18:03:33.512Z,6.00
2023-04-17T18:06:03.472Z,6.00
2023-04-17T18:08:32.669Z,6.40
2023-04-17T18:11:03.035Z,6.50
2023-04-17T18:13:32.937Z,6.10
2023-04-17T18:16:05.794Z,6.30
2023-04-17T18:18:35.728Z,6.90
2023-04-17T18:21:08.294Z,6.80
2023-04-17T18:23:37.520Z,6.50
2023-04-17T18:26:06.837Z,7.10
2023-04-17T18:28:38.152Z,6.80
2023-04-17T18:31:10.852Z,7.20
2023-04-17T18:33:45.058Z,7.30
2023-04-17T18:36:14.485Z,7.40
2023-04-17T18:38:44.501Z,6.90
2023-04-17T18:41:14.920Z,6.70
2023-04-17T18:43:50.537Z,7.20
2023-04-17T18:46:23.904Z,7.10
2023-04-17T18:48:53.655Z,7.60
2023-04-17T18:51:26.407Z,7.40
2023-04-17T18:53:57.305Z,7.30
2023-04-17T18:56:26.843Z,7.00
2023-04-17T18:58:55.988Z,6.20
2023-04-17T19:01:25.443Z,6.30
2023-04-17T19:03:57.167Z,6.10
2023-04-17T19:06:27.334Z,5.80
2023-04-17T19:08:57.285Z,6.40
2023-04-17T19:11:27.572Z,6.10
2023-04-17T19:13:57.419Z,5.50
2023-04-17T19:16:27.556Z,5.00
2023-04-17T19:18:57.585Z,5.10
2023-04-17T19:21:34.804Z,5.20
2023-04-17T19:24:04.926Z,5.10
2023-04-17T19:26:45.560Z,5.50
2023-04-17T19:29:16.763Z,4.80
2023-04-17T19:31:48.065Z,4.00
2023-04-17T19:34:17.844Z,4.30
2023-04-17T19:36:47.080Z,4.30
2023-04-17T19:39:16.852Z,4.70
2023-04-17T19:41:51.066Z,4.50
2023-04-17T19:44:21.481Z,4.20
2023-04-17T19:46:52.190Z,4.40
2023-04-17T19:49:22.298Z,3.80
2023-04-17T19:51:54.307Z,3.80
2023-04-17T19:54:25.377Z,3.60
2023-04-17T19:56:54.642Z,4.30
2023-04-17T19:59:24.202Z,3.60
2023-04-17T20:01:55.281Z,4.30
2023-04-17T20:04:25.190Z,3.60
2023-04-17T20:06:55.703Z,3.60
2023-04-17T20:09:25.808Z,3.20
2023-04-17T20:11:55.900Z,3.70
2023-04-17T20:14:27.545Z,3.60
2023-04-17T20:16:59.676Z,3.90
2023-04-17T20:19:34.102Z,3.90
2023-04-17T20:22:13.390Z,4.70
2023-04-17T20:24:46.365Z,4.10
2023-04-17T20:27:20.978Z,3.70
2023-04-17T20:29:55.960Z,4.20
2023-04-17T20:32:27.940Z,4.70
2023-04-17T20:35:00.005Z,3.80
2023-04-17T20:37:29.572Z,4.50
2023-04-17T20:39:59.800Z,4.70
2023-04-17T20:42:30.285Z,4.50
2023-04-17T20:45:01.266Z,4.00
2023-04-17T20:47:31.802Z,3.70
2023-04-17T20:50:03.010Z,4.20
2023-04-17T20:52:33.890Z,3.90
2023-04-17T20:55:09.688Z,4.10
2023-04-17T20:57:41.922Z,4.40
2023-04-17T21:00:14.377Z,4.40
2023-04-17T21:02:44.285Z,4.60
2023-04-17T21:05:13.889Z,4.30
2023-04-17T21:07:42.990Z,3.80
2023-04-17T21:10:12.432Z,4.20
2023-04-17T21:12:42.414Z,4.70
2023-04-17T21:15:13.019Z,4.40
2023-04-17T21:17:47.076Z,4.50
2023-04-17T21:20:16.999Z,4.50
2023-04-17T21:22:46.316Z,4.80
2023-04-17T21:25:15.548Z,4.90
2023-04-17T21:27:45.372Z,4.90
2023-04-17T21:30:15.177Z,4.50
2023-04-17T21:32:45.066Z,4.00
2023-04-17T21:35:15.621Z,4.50
2023-04-17T21:37:46.381Z,4.60
2023-04-17T21:40:17.422Z,5.00
2023-04-17T21:42:46.536Z,4.60
2023-04-17T21:45:16.989Z,4.30
2023-04-17T21:47:46.432Z,4.50
2023-04-17T21:50:15.708Z,5.20
2023-04-17T21:52:45.475Z,4.30
2023-04-17T21:55:15.342Z,4.60
2023-04-17T21:57:44.741Z,4.80
2023-04-17T22:00:17.110Z,5.40
2023-04-17T22:02:46.561Z,4.90
2023-04-17T22:05:16.904Z,5.10
2023-04-17T22:07:54.429Z,5.00
2023-04-17T22:10:26.452Z,5.30
2023-04-17T22:12:55.754Z,5.30
2023-04-17T22:15:25.352Z,5.00
2023-04-17T22:17:55.960Z,4.90
2023-04-17T22:20:26.285Z,4.90
2023-04-17T22:22:55.996Z,5.10
2023-04-17T22:25:25.780Z,5.60
2023-04-17T22:27:54.972Z,5.20
2023-04-17T22:30:25.445Z,5.10
2023-04-17T22:32:56.725Z,5.20
2023-04-17T22:35:27.182Z,5.30
2023-04-17T22:37:56.883Z,5.30
2023-04-17T22:40:30.026Z,4.80
2023-04-17T22:43:03.214Z,5.30
2023-04-17T22:45:36.683Z,5.40
2023-04-17T22:48:06.769Z,5.40
2023-04-17T22:50:43.259Z,6.30
2023-04-17T22:53:12.605Z,5.20
2023-04-17T22:55:41.924Z,5.00
2023-04-17T22:58:11.687Z,5.20
2023-04-17T23:00:42.609Z,5.60
2023-04-17T23:03:12.430Z,5.00
2023-04-17T23:05:42.990Z,5.50
2023-04-17T23:08:15.462Z,6.70
2023-04-17T23:10:45.827Z,6.10
2023-04-17T23:13:15.522Z,5.50
2023-04-17T23:15:45.359Z,5.70
2023-04-17T23:18:14.607Z,5.50
2023-04-17T23:20:43.989Z,5.40
2023-04-17T23:23:13.996Z,6.00
2023-04-17T23:25:45.222Z,5.70
2023-04-17T23:28:16.345Z,6.20
2023-04-17T23:30:47.571Z,6.20
2023-04-17T23:33:17.740Z,6.70
2023-04-17T23:35:49.511Z,5.90
2023-04-17T23:38:19.053Z,5.70
2023-04-17T23:40:48.907Z,5.80
2023-04-17T23:43:18.858Z,5.70
2023-04-17T23:45:48.875Z,6.10
2023-04-17T23:48:19.210Z,5.90
2023-04-17T23:50:53.731Z,6.00
2023-04-17T23:53:23.937Z,6.10
2023-04-17T23:55:54.982Z,5.80
2023-04-17T23:58:27.224Z,5.40
